Check out our new PWSWeather beta!
PWSweather.com
Personal Weather Stations
Station Observations
KVAGLENALL
West Henrico, Glen Allen, VA 23060-6503

West HenricoGlen Allen, VA 23060-6503

Lat: 37.6554, Lon: -77.5693

Elevation: 273

Station Type: Davis Vantage Pro II

www.glenallenweather.com

High Low Average
Temperature 39.6°F4.2°C 33.4°F0.8°C 36.6°F2.6°C
Dew Point 31.5°F-0.3°C 24.6°F-4.1°C 27.7°F-2.4°C
Winds 9.0 mph 14.5 kmh Calm Calm 3.0 mph E4.8 kmh E
Wind Gusts 11.1 mph17.9 kmh -- 5.0 mph8.0 kmh
Humidity 79% 63% 70%
Pressure 30.81 in1043.3 mb 30.62 in1036.9 mb -
Precipitation 0.00 in0.0 mm - -
Hour Temp Dew Point Humidity Winds Wind Gusts Pressure Precip Precip Rate Daily Precip Total
12:00 AM 36.6°F2.6°C 29.1°F-1.6°C 74% 5.0 mph NNE8.0 kmh NNE 9.1 mph14.6 kmh 30.67 in1038.6 mb 0.00 in0.0 mm 0.00 in0.0 mm 0.00 in0.0 mm
12:15 AM 36.8°F2.7°C 28.3°F-2.1°C 71% 4.0 mph NE6.4 kmh NE 6.1 mph9.8 kmh 30.67 in1038.6 mb 0.00 in0.0 mm 0.00 in0.0 mm 0.00 in0.0 mm
12:30 AM 36.7°F2.6°C 28.2°F-2.1°C 71% 3.0 mph NE4.8 kmh NE 7.1 mph11.4 kmh 30.67 in1038.6 mb 0.00 in0.0 mm 0.00 in0.0 mm 0.00 in0.0 mm
12:45 AM 36.6°F2.6°C 27.4°F-2.6°C 69% 7.0 mph NNE11.3 kmh NNE 10.1 mph16.3 kmh 30.66 in1038.3 mb 0.00 in0.0 mm 0.00 in0.0 mm 0.00 in0.0 mm
01:00 AM 36.5°F2.5°C 26.9°F-2.8°C 68% 3.0 mph NNE4.8 kmh NNE 8.1 mph13.0 kmh 30.66 in1038.3 mb 0.00 in0.0 mm 0.00 in0.0 mm 0.00 in0.0 mm
01:15 AM 36.3°F2.4°C 26.8°F-2.9°C 68% 2.0 mph NNW3.2 kmh NNW 6.1 mph9.8 kmh 30.67 in1038.6 mb 0.00 in0.0 mm 0.00 in0.0 mm 0.00 in0.0 mm
01:30 AM 36.2°F2.3°C 26.7°F-2.9°C 68% 5.0 mph NNE8.0 kmh NNE 9.1 mph14.6 kmh 30.67 in1038.6 mb 0.00 in0.0 mm 0.00 in0.0 mm 0.00 in0.0 mm
01:45 AM 35.8°F2.1°C 26.6°F-3.0°C 69% 2.0 mph NNW3.2 kmh NNW 4.0 mph6.4 kmh 30.67 in1038.6 mb 0.00 in0.0 mm 0.00 in0.0 mm 0.00 in0.0 mm
02:00 AM 34.9°F1.6°C 26.8°F-2.9°C 72% 3.0 mph N4.8 kmh N 4.0 mph6.4 kmh 30.68 in1038.9 mb 0.00 in0.0 mm 0.00 in0.0 mm 0.00 in0.0 mm
02:15 AM 34.5°F1.4°C 26.4°F-3.1°C 72% 4.0 mph NNE6.4 kmh NNE 5.1 mph8.2 kmh 30.69 in1039.3 mb 0.00 in0.0 mm 0.00 in0.0 mm 0.00 in0.0 mm
02:30 AM 34.5°F1.4°C 26.4°F-3.1°C 72% 1.0 mph N1.6 kmh N 5.1 mph8.2 kmh 30.70 in1039.6 mb 0.00 in0.0 mm 0.00 in0.0 mm 0.00 in0.0 mm
02:45 AM 34.0°F1.1°C 26.6°F-3.0°C 74% 2.0 mph N3.2 kmh N 3.0 mph4.8 kmh 30.69 in1039.3 mb 0.00 in0.0 mm 0.00 in0.0 mm 0.00 in0.0 mm
03:00 AM 33.4°F0.8°C 26.6°F-3.0°C 76% 2.0 mph N3.2 kmh N 2.0 mph3.2 kmh 30.70 in1039.6 mb 0.00 in0.0 mm 0.00 in0.0 mm 0.00 in0.0 mm
03:15 AM 33.7°F0.9°C 26.0°F-3.3°C 73% 4.0 mph NNE6.4 kmh NNE 4.0 mph6.4 kmh 30.70 in1039.6 mb 0.00 in0.0 mm 0.00 in0.0 mm 0.00 in0.0 mm
03:30 AM 33.9°F1.1°C 25.5°F-3.6°C 71% 6.0 mph NE9.7 kmh NE 9.1 mph14.6 kmh 30.70 in1039.6 mb 0.00 in0.0 mm 0.00 in0.0 mm 0.00 in0.0 mm
03:45 AM 34.0°F1.1°C 25.6°F-3.6°C 71% 5.0 mph NNE8.0 kmh NNE 11.1 mph17.9 kmh 30.69 in1039.3 mb 0.00 in0.0 mm 0.00 in0.0 mm 0.00 in0.0 mm
04:00 AM 33.9°F1.1°C 25.1°F-3.8°C 70% 4.0 mph NNE6.4 kmh NNE 6.1 mph9.8 kmh 30.70 in1039.6 mb 0.00 in0.0 mm 0.00 in0.0 mm 0.00 in0.0 mm
04:15 AM 33.9°F1.1°C 25.1°F-3.8°C 70% 2.0 mph NNE3.2 kmh NNE 8.1 mph13.0 kmh 30.69 in1039.3 mb 0.00 in0.0 mm 0.00 in0.0 mm 0.00 in0.0 mm
04:30 AM 34.0°F1.1°C 25.2°F-3.8°C 70% 9.0 mph NE14.5 kmh NE 9.1 mph14.6 kmh 30.71 in1040.0 mb 0.00 in0.0 mm 0.00 in0.0 mm 0.00 in0.0 mm
04:45 AM 34.2°F1.2°C 25.1°F-3.8°C 69% 3.0 mph NNE4.8 kmh NNE 9.1 mph14.6 kmh 30.72 in1040.3 mb 0.00 in0.0 mm 0.00 in0.0 mm 0.00 in0.0 mm
05:00 AM 34.3°F1.3°C 25.5°F-3.6°C 70% 4.0 mph N6.4 kmh N 8.1 mph13.0 kmh 30.72 in1040.3 mb 0.00 in0.0 mm 0.00 in0.0 mm 0.00 in0.0 mm
05:15 AM 34.1°F1.2°C 25.3°F-3.7°C 70% 8.0 mph NNE12.9 kmh NNE 11.1 mph17.9 kmh 30.72 in1040.3 mb 0.00 in0.0 mm 0.00 in0.0 mm 0.00 in0.0 mm
05:30 AM 34.0°F1.1°C 25.2°F-3.8°C 70% 6.0 mph N9.7 kmh N 9.1 mph14.6 kmh 30.73 in1040.6 mb 0.00 in0.0 mm 0.00 in0.0 mm 0.00 in0.0 mm
05:45 AM 34.1°F1.2°C 25.3°F-3.7°C 70% 4.0 mph NE6.4 kmh NE 10.1 mph16.3 kmh 30.73 in1040.6 mb 0.00 in0.0 mm 0.00 in0.0 mm 0.00 in0.0 mm
06:00 AM 34.2°F1.2°C 25.1°F-3.8°C 69% 3.0 mph NNE4.8 kmh NNE 8.1 mph13.0 kmh 30.74 in1041.0 mb 0.00 in0.0 mm 0.00 in0.0 mm 0.00 in0.0 mm
06:15 AM 34.2°F1.2°C 25.1°F-3.8°C 69% 9.0 mph NNE14.5 kmh NNE 10.1 mph16.3 kmh 30.74 in1041.0 mb 0.00 in0.0 mm 0.00 in0.0 mm 0.00 in0.0 mm
06:30 AM 34.1°F1.2°C 25.0°F-3.9°C 69% 3.0 mph NNE4.8 kmh NNE 5.1 mph8.2 kmh 30.75 in1041.3 mb 0.00 in0.0 mm 0.00 in0.0 mm 0.00 in0.0 mm
06:45 AM 34.1°F1.2°C 25.0°F-3.9°C 69% 6.0 mph NE9.7 kmh NE 9.1 mph14.6 kmh 30.76 in1041.7 mb 0.00 in0.0 mm 0.00 in0.0 mm 0.00 in0.0 mm
07:00 AM 34.1°F1.2°C 25.0°F-3.9°C 69% 4.0 mph NE6.4 kmh NE 8.1 mph13.0 kmh 30.76 in1041.7 mb 0.00 in0.0 mm 0.00 in0.0 mm 0.00 in0.0 mm
07:15 AM 34.2°F1.2°C 24.7°F-4.1°C 68% 5.0 mph E8.0 kmh E 5.1 mph8.2 kmh 30.77 in1042.0 mb 0.00 in0.0 mm 0.00 in0.0 mm 0.00 in0.0 mm
07:30 AM 34.1°F1.2°C 24.6°F-4.1°C 68% 4.0 mph N6.4 kmh N 9.1 mph14.6 kmh 30.77 in1042.0 mb 0.00 in0.0 mm 0.00 in0.0 mm 0.00 in0.0 mm
07:45 AM 34.2°F1.2°C 24.7°F-4.1°C 68% 5.0 mph NNE8.0 kmh NNE 5.1 mph8.2 kmh 30.78 in1042.3 mb 0.00 in0.0 mm 0.00 in0.0 mm 0.00 in0.0 mm
08:00 AM 34.4°F1.3°C 25.3°F-3.7°C 69% 3.0 mph NNE4.8 kmh NNE 8.1 mph13.0 kmh 30.78 in1042.3 mb 0.00 in0.0 mm 0.00 in0.0 mm 0.00 in0.0 mm
08:15 AM 34.5°F1.4°C 25.4°F-3.7°C 69% 8.0 mph NNE12.9 kmh NNE 11.1 mph17.9 kmh 30.78 in1042.3 mb 0.00 in0.0 mm 0.00 in0.0 mm 0.00 in0.0 mm
08:30 AM 34.9°F1.6°C 25.4°F-3.7°C 68% 5.0 mph NE8.0 kmh NE 6.1 mph9.8 kmh 30.80 in1043.0 mb 0.00 in0.0 mm 0.00 in0.0 mm 0.00 in0.0 mm
08:45 AM 35.2°F1.8°C 25.7°F-3.5°C 68% 2.0 mph NNE3.2 kmh NNE 4.0 mph6.4 kmh 30.80 in1043.0 mb 0.00 in0.0 mm 0.00 in0.0 mm 0.00 in0.0 mm
09:00 AM 35.6°F2.0°C 26.4°F-3.1°C 69% 5.0 mph NE8.0 kmh NE 6.1 mph9.8 kmh 30.80 in1043.0 mb 0.00 in0.0 mm 0.00 in0.0 mm 0.00 in0.0 mm
09:15 AM 35.6°F2.0°C 26.1°F-3.3°C 68% 4.0 mph NNE6.4 kmh NNE 9.1 mph14.6 kmh 30.80 in1043.0 mb 0.00 in0.0 mm 0.00 in0.0 mm 0.00 in0.0 mm
09:30 AM 36.1°F2.3°C 26.6°F-3.0°C 68% 3.0 mph NNE4.8 kmh NNE 8.1 mph13.0 kmh 30.80 in1043.0 mb 0.00 in0.0 mm 0.00 in0.0 mm 0.00 in0.0 mm
09:45 AM 36.3°F2.4°C 26.4°F-3.1°C 67% Calm Calm 2.0 mph3.2 kmh 30.81 in1043.3 mb 0.00 in0.0 mm 0.00 in0.0 mm 0.00 in0.0 mm
10:00 AM 36.3°F2.4°C 26.4°F-3.1°C 67% 3.0 mph NE4.8 kmh NE 5.1 mph8.2 kmh 30.81 in1043.3 mb 0.00 in0.0 mm 0.00 in0.0 mm 0.00 in0.0 mm
10:15 AM 36.6°F2.6°C 26.7°F-2.9°C 67% 2.0 mph NE3.2 kmh NE 4.0 mph6.4 kmh 30.80 in1043.0 mb 0.00 in0.0 mm 0.00 in0.0 mm 0.00 in0.0 mm
10:30 AM 37.2°F2.9°C 26.9°F-2.8°C 66% 4.0 mph NE6.4 kmh NE 5.1 mph8.2 kmh 30.80 in1043.0 mb 0.00 in0.0 mm 0.00 in0.0 mm 0.00 in0.0 mm
10:45 AM 37.3°F2.9°C 26.6°F-3.0°C 65% 3.0 mph ESE4.8 kmh ESE 7.1 mph11.4 kmh 30.79 in1042.7 mb 0.00 in0.0 mm 0.00 in0.0 mm 0.00 in0.0 mm
11:00 AM 37.4°F3.0°C 27.8°F-2.3°C 68% 3.0 mph ESE4.8 kmh ESE 6.1 mph9.8 kmh 30.79 in1042.7 mb 0.00 in0.0 mm 0.00 in0.0 mm 0.00 in0.0 mm
11:15 AM 37.7°F3.2°C 27.7°F-2.4°C 67% 3.0 mph N4.8 kmh N 4.0 mph6.4 kmh 30.79 in1042.7 mb 0.00 in0.0 mm 0.00 in0.0 mm 0.00 in0.0 mm
11:30 AM 37.6°F3.1°C 28.0°F-2.2°C 68% 2.0 mph ESE3.2 kmh ESE 6.1 mph9.8 kmh 30.78 in1042.3 mb 0.00 in0.0 mm 0.00 in0.0 mm 0.00 in0.0 mm
11:45 AM 38.0°F3.3°C 28.7°F-1.8°C 69% 5.0 mph SSE8.0 kmh SSE 6.1 mph9.8 kmh 30.77 in1042.0 mb 0.00 in0.0 mm 0.00 in0.0 mm 0.00 in0.0 mm
12:00 PM 37.9°F3.3°C 28.3°F-2.1°C 68% 2.0 mph E3.2 kmh E 3.0 mph4.8 kmh 30.77 in1042.0 mb 0.00 in0.0 mm 0.00 in0.0 mm 0.00 in0.0 mm
12:15 PM 38.6°F3.7°C 29.0°F-1.7°C 68% 3.0 mph NNE4.8 kmh NNE 5.1 mph8.2 kmh 30.76 in1041.7 mb 0.00 in0.0 mm 0.00 in0.0 mm 0.00 in0.0 mm
12:30 PM 38.7°F3.7°C 28.3°F-2.1°C 66% Calm Calm 1.0 mph1.6 kmh 30.76 in1041.7 mb 0.00 in0.0 mm 0.00 in0.0 mm 0.00 in0.0 mm
12:45 PM 39.0°F3.9°C 28.6°F-1.9°C 66% 2.0 mph ESE3.2 kmh ESE 3.0 mph4.8 kmh 30.76 in1041.7 mb 0.00 in0.0 mm 0.00 in0.0 mm 0.00 in0.0 mm
01:00 PM 38.9°F3.8°C 28.5°F-1.9°C 66% Calm Calm 1.0 mph1.6 kmh 30.75 in1041.3 mb 0.00 in0.0 mm 0.00 in0.0 mm 0.00 in0.0 mm
01:15 PM 38.8°F3.8°C 28.4°F-2.0°C 66% 1.0 mph ENE1.6 kmh ENE 1.0 mph1.6 kmh 30.74 in1041.0 mb 0.00 in0.0 mm 0.00 in0.0 mm 0.00 in0.0 mm
01:30 PM 39.2°F4.0°C 27.7°F-2.4°C 63% 3.0 mph ESE4.8 kmh ESE 3.0 mph4.8 kmh 30.75 in1041.3 mb 0.00 in0.0 mm 0.00 in0.0 mm 0.00 in0.0 mm
01:45 PM 39.0°F3.9°C 27.9°F-2.3°C 64% Calm Calm 2.0 mph3.2 kmh 30.74 in1041.0 mb 0.00 in0.0 mm 0.00 in0.0 mm 0.00 in0.0 mm
02:00 PM 39.2°F4.0°C 28.1°F-2.2°C 64% 4.0 mph E6.4 kmh E 6.1 mph9.8 kmh 30.73 in1040.6 mb 0.00 in0.0 mm 0.00 in0.0 mm 0.00 in0.0 mm
02:15 PM 39.2°F4.0°C 27.7°F-2.4°C 63% 2.0 mph S3.2 kmh S 4.0 mph6.4 kmh 30.73 in1040.6 mb 0.00 in0.0 mm 0.00 in0.0 mm 0.00 in0.0 mm
02:30 PM 39.4°F4.1°C 27.9°F-2.3°C 63% 5.0 mph E8.0 kmh E 8.1 mph13.0 kmh 30.71 in1040.0 mb 0.00 in0.0 mm 0.00 in0.0 mm 0.00 in0.0 mm
02:45 PM 39.6°F4.2°C 28.8°F-1.8°C 65% 3.0 mph ESE4.8 kmh ESE 4.0 mph6.4 kmh 30.71 in1040.0 mb 0.00 in0.0 mm 0.00 in0.0 mm 0.00 in0.0 mm
03:00 PM 39.3°F4.1°C 28.5°F-1.9°C 65% 3.0 mph E4.8 kmh E 6.1 mph9.8 kmh 30.71 in1040.0 mb 0.00 in0.0 mm 0.00 in0.0 mm 0.00 in0.0 mm
03:15 PM 39.0°F3.9°C 28.6°F-1.9°C 66% 2.0 mph E3.2 kmh E 6.1 mph9.8 kmh 30.71 in1040.0 mb 0.00 in0.0 mm 0.00 in0.0 mm 0.00 in0.0 mm
03:30 PM 39.0°F3.9°C 28.6°F-1.9°C 66% 5.0 mph E8.0 kmh E 5.1 mph8.2 kmh 30.71 in1040.0 mb 0.00 in0.0 mm 0.00 in0.0 mm 0.00 in0.0 mm
03:45 PM 38.9°F3.8°C 28.2°F-2.1°C 65% 3.0 mph ESE4.8 kmh ESE 4.0 mph6.4 kmh 30.71 in1040.0 mb 0.00 in0.0 mm 0.00 in0.0 mm 0.00 in0.0 mm
04:00 PM 39.1°F3.9°C 28.7°F-1.8°C 66% Calm Calm 2.0 mph3.2 kmh 30.71 in1040.0 mb 0.00 in0.0 mm 0.00 in0.0 mm 0.00 in0.0 mm
04:15 PM 39.2°F4.0°C 28.8°F-1.8°C 66% 1.0 mph ESE1.6 kmh ESE 2.0 mph3.2 kmh 30.71 in1040.0 mb 0.00 in0.0 mm 0.00 in0.0 mm 0.00 in0.0 mm
04:30 PM 38.8°F3.8°C 28.4°F-2.0°C 66% 1.0 mph S1.6 kmh S 2.0 mph3.2 kmh 30.71 in1040.0 mb 0.00 in0.0 mm 0.00 in0.0 mm 0.00 in0.0 mm
04:45 PM 38.8°F3.8°C 30.2°F-1.0°C 71% 2.0 mph SE3.2 kmh SE 2.0 mph3.2 kmh 30.70 in1039.6 mb 0.00 in0.0 mm 0.00 in0.0 mm 0.00 in0.0 mm
05:00 PM 38.5°F3.6°C 30.6°F-0.8°C 73% Calm Calm 3.0 mph4.8 kmh 30.70 in1039.6 mb 0.00 in0.0 mm 0.00 in0.0 mm 0.00 in0.0 mm
05:15 PM 38.4°F3.6°C 30.2°F-1.0°C 72% Calm Calm -- 30.69 in1039.3 mb 0.00 in0.0 mm 0.00 in0.0 mm 0.00 in0.0 mm
05:30 PM 38.4°F3.6°C 30.5°F-0.8°C 73% 1.0 mph E1.6 kmh E 1.0 mph1.6 kmh 30.69 in1039.3 mb 0.00 in0.0 mm 0.00 in0.0 mm 0.00 in0.0 mm
05:45 PM 38.4°F3.6°C 30.2°F-1.0°C 72% 3.0 mph ESE4.8 kmh ESE 3.0 mph4.8 kmh 30.69 in1039.3 mb 0.00 in0.0 mm 0.00 in0.0 mm 0.00 in0.0 mm
06:00 PM 38.2°F3.4°C 30.0°F-1.1°C 72% 2.0 mph SE3.2 kmh SE 4.0 mph6.4 kmh 30.69 in1039.3 mb 0.00 in0.0 mm 0.00 in0.0 mm 0.00 in0.0 mm
06:15 PM 38.2°F3.4°C 30.0°F-1.1°C 72% 2.0 mph SE3.2 kmh SE 2.0 mph3.2 kmh 30.69 in1039.3 mb 0.00 in0.0 mm 0.00 in0.0 mm 0.00 in0.0 mm
06:30 PM 38.1°F3.4°C 29.9°F-1.2°C 72% 4.0 mph ESE6.4 kmh ESE 4.0 mph6.4 kmh 30.68 in1038.9 mb 0.00 in0.0 mm 0.00 in0.0 mm 0.00 in0.0 mm
06:45 PM 38.1°F3.4°C 30.2°F-1.0°C 73% 4.0 mph E6.4 kmh E 6.1 mph9.8 kmh 30.68 in1038.9 mb 0.00 in0.0 mm 0.00 in0.0 mm 0.00 in0.0 mm
07:00 PM 38.0°F3.3°C 29.8°F-1.2°C 72% Calm Calm -- 30.68 in1038.9 mb 0.00 in0.0 mm 0.00 in0.0 mm 0.00 in0.0 mm
07:15 PM 38.0°F3.3°C 29.8°F-1.2°C 72% 1.0 mph E1.6 kmh E 2.0 mph3.2 kmh 30.68 in1038.9 mb 0.00 in0.0 mm 0.00 in0.0 mm 0.00 in0.0 mm
07:30 PM 37.8°F3.2°C 29.9°F-1.2°C 73% 2.0 mph ESE3.2 kmh ESE 3.0 mph4.8 kmh 30.67 in1038.6 mb 0.01 in0.3 mm 0.04 in1.0 mm 0.01 in0.3 mm
07:45 PM 37.5°F3.1°C 30.0°F-1.1°C 74% Calm Calm 1.0 mph1.6 kmh 30.67 in1038.6 mb 0.01 in0.3 mm 0.00 in0.0 mm 0.01 in0.3 mm
08:00 PM 37.4°F3.0°C 30.2°F-1.0°C 75% Calm Calm 2.0 mph3.2 kmh 30.66 in1038.3 mb 0.01 in0.3 mm 0.00 in0.0 mm 0.01 in0.3 mm
08:15 PM 36.7°F2.6°C 29.5°F-1.4°C 75% Calm Calm 1.0 mph1.6 kmh 30.66 in1038.3 mb 0.01 in0.3 mm 0.00 in0.0 mm 0.01 in0.3 mm
08:30 PM 36.9°F2.7°C 30.4°F-0.9°C 77% Calm Calm -- 30.66 in1038.3 mb 0.00 in0.0 mm 0.00 in0.0 mm 0.01 in0.3 mm
08:45 PM 37.2°F2.9°C 30.3°F-0.9°C 76% Calm Calm 1.0 mph1.6 kmh 30.65 in1037.9 mb 0.00 in0.0 mm 0.00 in0.0 mm 0.01 in0.3 mm
09:00 PM 37.3°F2.9°C 30.4°F-0.9°C 76% 1.0 mph SE1.6 kmh SE 2.0 mph3.2 kmh 30.65 in1037.9 mb 0.00 in0.0 mm 0.00 in0.0 mm 0.01 in0.3 mm
09:15 PM 37.3°F2.9°C 30.8°F-0.7°C 77% 2.0 mph SE3.2 kmh SE 2.0 mph3.2 kmh 30.64 in1037.6 mb 0.00 in0.0 mm 0.00 in0.0 mm 0.01 in0.3 mm
09:30 PM 37.3°F2.9°C 30.8°F-0.7°C 77% 1.0 mph ESE1.6 kmh ESE 3.0 mph4.8 kmh 30.64 in1037.6 mb 0.00 in0.0 mm 0.00 in0.0 mm 0.01 in0.3 mm
09:45 PM 37.4°F3.0°C 31.2°F-0.4°C 78% 1.0 mph ESE1.6 kmh ESE 1.0 mph1.6 kmh 30.63 in1037.3 mb 0.00 in0.0 mm 0.00 in0.0 mm 0.01 in0.3 mm
10:00 PM 37.4°F3.0°C 31.5°F-0.3°C 79% 2.0 mph ESE3.2 kmh ESE 4.0 mph6.4 kmh 30.62 in1036.9 mb 0.00 in0.0 mm 0.00 in0.0 mm 0.01 in0.3 mm